Time;durP1;ratioP1;P1;durP2;ratioP2;P2;SDS_P1;SDS_P2;PMS_P1;PMS_P2;Temp;Humidity;BMP_temperature;BMP_pressure;BME280_temperature;BME280_humidity;BME280_pressure;Samples;Min_cycle;Max_cycle;Signal;HPM_P1;HPM_P2
2023/03/13 00:01:56;;;;;;;27.50;14.63;;;9.10;65.60;;;;;;6063215;23;20233;-72
2023/03/13 00:04:26;;;;;;;28.90;15.07;;;9.10;65.60;;;;;;6061727;23;20178;-72
2023/03/13 00:06:54;;;;;;;28.03;14.00;;;9.10;65.80;;;;;;6064714;23;20224;-72
2023/03/13 00:09:22;;;;;;;31.83;15.00;;;9.10;66.00;;;;;;6065725;23;20174;-72
2023/03/13 00:11:51;;;;;;;26.80;13.97;;;9.00;66.10;;;;;;6065217;23;20179;-75
2023/03/13 00:14:19;;;;;;;35.53;16.80;;;9.00;67.00;;;;;;6064568;23;20222;-72
2023/03/13 00:16:47;;;;;;;41.63;18.63;;;8.90;66.70;;;;;;6062904;23;20174;-72
2023/03/13 00:19:16;;;;;;;31.17;15.97;;;8.90;66.70;;;;;;6064569;23;20175;-72
2023/03/13 00:21:45;;;;;;;34.30;18.10;;;8.90;66.80;;;;;;6065349;23;20186;-73
2023/03/13 00:24:14;;;;;;;28.30;16.93;;;8.90;66.90;;;;;;6063981;23;20648;-72
2023/03/13 00:26:42;;;;;;;30.83;16.73;;;8.80;66.80;;;;;;6065719;23;20234;-72
2023/03/13 00:29:10;;;;;;;34.07;16.87;;;8.80;67.00;;;;;;6064081;23;20549;-72
2023/03/13 00:31:39;;;;;;;28.77;16.13;;;8.80;67.00;;;;;;6064011;23;20181;-72
2023/03/13 00:34:07;;;;;;;27.77;16.17;;;8.80;67.20;;;;;;6064291;23;20190;-72
2023/03/13 00:36:36;;;;;;;30.40;16.63;;;8.70;67.30;;;;;;6063537;23;20222;-74
2023/03/13 00:39:06;;;;;;;31.53;16.90;;;8.70;67.30;;;;;;6065236;23;20249;-76
2023/03/13 00:41:36;;;;;;;28.70;15.43;;;8.70;67.50;;;;;;6064316;23;20249;-72
2023/03/13 00:44:05;;;;;;;33.93;16.13;;;8.60;67.70;;;;;;6063107;23;20182;-72
2023/03/13 00:46:33;;;;;;;33.10;15.47;;;8.60;67.70;;;;;;6064313;23;20183;-72
2023/03/13 00:49:02;;;;;;;29.43;15.53;;;8.60;67.80;;;;;;6064829;23;20505;-72
2023/03/13 00:51:30;;;;;;;35.73;17.60;;;8.60;67.90;;;;;;6065256;23;20174;-72
2023/03/13 00:54:00;;;;;;;40.53;16.90;;;8.60;68.00;;;;;;6065189;23;20230;-72
2023/03/13 00:56:30;;;;;;;37.90;16.97;;;8.60;68.30;;;;;;6065030;23;20647;-72
2023/03/13 00:59:01;;;;;;;33.67;16.67;;;8.50;68.20;;;;;;6065027;23;20198;-72
2023/03/13 01:01:32;;;;;;;34.03;16.37;;;8.50;68.30;;;;;;6062630;23;20165;-72
2023/03/13 01:04:02;;;;;;;35.13;15.97;;;8.50;68.50;;;;;;6066530;23;20169;-72
2023/03/13 01:06:32;;;;;;;28.73;16.07;;;8.50;68.50;;;;;;6064962;23;20181;-72
2023/03/13 01:09:02;;;;;;;29.73;15.60;;;8.50;68.60;;;;;;6064769;23;20162;-72
2023/03/13 01:11:35;;;;;;;32.20;16.60;;;8.40;68.70;;;;;;6063994;23;20181;-72
2023/03/13 01:14:05;;;;;;;34.27;16.47;;;8.40;69.00;;;;;;6063698;23;20170;-72
2023/03/13 01:16:35;;;;;;;38.37;17.03;;;8.40;69.10;;;;;;6064928;23;20166;-72
2023/03/13 01:19:05;;;;;;;35.90;17.53;;;8.40;69.20;;;;;;6065594;23;20189;-72
2023/03/13 01:21:34;;;;;;;30.47;15.17;;;8.30;69.20;;;;;;6064994;23;20237;-72
2023/03/13 01:24:03;;;;;;;30.20;17.03;;;8.30;69.30;;;;;;6065848;23;20177;-72
2023/03/13 01:26:33;;;;;;;35.73;17.43;;;8.30;69.50;;;;;;6063098;23;20501;-72
2023/03/13 01:29:01;;;;;;;32.03;16.33;;;8.30;69.70;;;;;;6064594;23;20185;-72
2023/03/13 01:31:31;;;;;;;30.20;15.43;;;8.20;69.70;;;;;;6064710;23;20199;-72
2023/03/13 01:34:01;;;;;;;34.03;16.37;;;8.20;69.90;;;;;;6064947;23;20615;-73
2023/03/13 01:36:29;;;;;;;32.43;16.10;;;8.20;69.90;;;;;;6065058;23;20177;-72
2023/03/13 01:39:00;;;;;;;33.93;16.67;;;8.20;70.00;;;;;;6062208;23;20658;-72
2023/03/13 01:41:30;;;;;;;35.53;17.23;;;8.10;70.00;;;;;;6063925;23;20177;-72
2023/03/13 01:44:00;;;;;;;29.87;16.00;;;8.10;70.20;;;;;;6064165;23;20177;-72
2023/03/13 01:46:29;;;;;;;30.97;15.63;;;8.10;70.30;;;;;;6061705;23;20240;-72
2023/03/13 01:49:03;;;;;;;33.40;17.20;;;8.10;70.20;;;;;;6061684;23;20179;-72
2023/03/13 01:51:35;;;;;;;29.07;16.60;;;8.10;70.40;;;;;;6063362;23;20164;-72
2023/03/13 01:54:07;;;;;;;34.57;16.97;;;8.00;70.50;;;;;;6061248;23;20554;-72
2023/03/13 01:56:41;;;;;;;31.87;16.03;;;8.00;70.50;;;;;;6063706;23;20635;-72
2023/03/13 01:59:15;;;;;;;31.77;16.60;;;8.00;70.60;;;;;;6063389;23;20198;-72
2023/03/13 02:01:46;;;;;;;34.73;17.17;;;7.90;70.60;;;;;;6063410;23;20172;-73
2023/03/13 02:04:16;;;;;;;34.13;17.37;;;7.90;70.60;;;;;;6063088;23;20187;-72
2023/03/13 02:06:47;;;;;;;34.07;16.50;;;7.90;70.80;;;;;;6063704;23;20175;-72
2023/03/13 02:09:21;;;;;;;37.33;17.20;;;7.90;70.80;;;;;;6063796;23;20619;-72
2023/03/13 02:11:54;;;;;;;34.13;16.77;;;7.80;70.80;;;;;;6064635;23;20219;-73
2023/03/13 02:14:27;;;;;;;32.33;16.00;;;7.80;70.80;;;;;;6061154;23;20611;-73
2023/03/13 02:16:56;;;;;;;33.70;15.40;;;7.80;70.90;;;;;;6062710;23;20228;-73
2023/03/13 02:19:31;;;;;;;37.28;18.08;;;7.80;71.00;;;;;;6058563;23;20418;-73
2023/03/13 02:22:07;;;;;;;29.50;15.43;;;7.80;71.60;;;;;;6062637;23;20159;-73
2023/03/13 02:24:42;;;;;;;32.03;15.90;;;7.70;71.80;;;;;;6063279;23;20342;-72
2023/03/13 02:27:12;;;;;;;30.30;15.33;;;7.70;71.80;;;;;;6062288;23;20617;-72
2023/03/13 02:29:41;;;;;;;31.83;15.67;;;7.70;71.60;;;;;;6063334;23;20179;-72
2023/03/13 02:32:10;;;;;;;35.35;18.23;;;7.70;71.80;;;;;;6055245;23;20814;-73
2023/03/13 02:34:41;;;;;;;31.43;15.83;;;7.60;72.80;;;;;;6050040;23;20177;-72
2023/03/13 02:37:11;;;;;;;37.40;16.03;;;7.60;72.80;;;;;;6060867;23;20476;-72
2023/03/13 02:39:44;;;;;;;31.23;16.87;;;7.60;72.60;;;;;;6063870;23;20258;-72
2023/03/13 02:42:15;;;;;;;33.67;15.87;;;7.60;72.50;;;;;;6057456;23;20202;-72
2023/03/13 02:44:47;;;;;;;34.17;15.57;;;7.60;72.40;;;;;;6061655;23;20169;-72
2023/03/13 02:47:18;;;;;;;31.87;16.10;;;7.50;72.30;;;;;;6060176;23;20171;-72
2023/03/13 02:49:46;;;;;;;34.33;17.00;;;7.50;72.50;;;;;;6063314;23;20164;-72
2023/03/13 02:52:21;;;;;;;37.27;15.90;;;7.50;72.60;;;;;;6060615;23;20193;-72
2023/03/13 02:54:52;;;;;;;33.07;17.20;;;7.40;72.50;;;;;;6062510;23;20167;-72
2023/03/13 02:57:22;;;;;;;37.43;18.57;;;7.40;72.50;;;;;;6063081;23;20765;-72
2023/03/13 02:59:50;;;;;;;38.83;17.70;;;7.40;72.40;;;;;;6063557;23;20208;-73
2023/03/13 03:02:19;;;;;;;31.50;16.57;;;7.40;72.30;;;;;;6063494;23;20239;-72
2023/03/13 03:04:47;;;;;;;33.03;17.77;;;7.40;72.40;;;;;;6063732;23;20232;-72
2023/03/13 03:07:15;;;;;;;35.73;17.60;;;7.40;72.30;;;;;;6063833;23;20707;-72
2023/03/13 03:09:44;;;;;;;37.17;18.80;;;7.40;72.20;;;;;;6065664;23;20180;-73
2023/03/13 03:12:12;;;;;;;33.70;17.33;;;7.40;72.30;;;;;;6063450;23;20489;-72
2023/03/13 03:14:42;;;;;;;39.33;19.73;;;7.40;72.40;;;;;;6063028;23;20179;-72
2023/03/13 03:17:10;;;;;;;42.47;19.33;;;7.30;72.40;;;;;;6063978;23;20176;-73
2023/03/13 03:19:39;;;;;;;39.83;18.03;;;7.30;72.40;;;;;;6062316;23;20244;-72
2023/03/13 03:22:07;;;;;;;37.50;19.03;;;7.30;72.40;;;;;;6063567;23;20191;-72
2023/03/13 03:24:35;;;;;;;34.70;18.57;;;7.30;72.40;;;;;;6062822;23;20223;-72
2023/03/13 03:27:04;;;;;;;36.77;20.10;;;7.30;72.40;;;;;;6065269;23;20234;-72
2023/03/13 03:29:32;;;;;;;37.70;18.50;;;7.30;72.40;;;;;;6064219;23;20185;-72
2023/03/13 03:32:02;;;;;;;38.07;18.30;;;7.30;72.40;;;;;;6062886;23;20239;-72
2023/03/13 03:34:30;;;;;;;41.47;23.33;;;7.20;72.60;;;;;;6062433;23;20181;-72
2023/03/13 03:36:59;;;;;;;46.13;21.70;;;7.20;72.50;;;;;;6062944;23;20175;-72
2023/03/13 03:39:27;;;;;;;47.47;24.07;;;7.20;72.50;;;;;;6062891;23;20263;-72
2023/03/13 03:41:56;;;;;;;49.03;26.70;;;7.20;72.50;;;;;;6064380;23;20179;-72
2023/03/13 03:44:24;;;;;;;54.37;30.73;;;7.20;72.60;;;;;;6064763;23;20185;-72
2023/03/13 03:46:52;;;;;;;59.27;33.40;;;7.20;73.00;;;;;;6062419;23;20180;-73
2023/03/13 03:49:22;;;;;;;54.80;31.07;;;7.20;72.90;;;;;;6061880;23;20206;-71
2023/03/13 03:51:51;;;;;;;48.57;24.53;;;7.10;73.00;;;;;;6064859;23;20176;-72
2023/03/13 03:54:19;;;;;;;49.40;25.70;;;7.10;73.00;;;;;;6066387;23;20177;-71
2023/03/13 03:56:47;;;;;;;37.87;18.90;;;7.10;73.00;;;;;;6065554;23;20208;-72
2023/03/13 03:59:16;;;;;;;40.37;20.90;;;7.10;73.00;;;;;;6064987;23;20199;-72
2023/03/13 04:01:44;;;;;;;41.33;20.47;;;7.10;73.00;;;;;;6064640;23;20178;-72
2023/03/13 04:04:12;;;;;;;39.83;21.37;;;7.10;73.00;;;;;;6065229;23;20243;-74
2023/03/13 04:06:42;;;;;;;42.40;21.20;;;7.10;73.00;;;;;;6066369;23;20544;-72
2023/03/13 04:09:10;;;;;;;38.07;19.67;;;7.10;73.10;;;;;;6064039;23;20176;-72
2023/03/13 04:11:39;;;;;;;35.20;19.40;;;7.10;73.00;;;;;;6060028;23;20610;-73
2023/03/13 04:14:07;;;;;;;35.80;17.87;;;7.00;73.20;;;;;;6062678;23;21169;-74
2023/03/13 04:16:36;;;;;;;32.47;17.00;;;7.00;74.00;;;;;;6061998;23;20182;-73
2023/03/13 04:19:04;;;;;;;33.63;17.73;;;7.00;73.20;;;;;;6061802;23;20206;-73
2023/03/13 04:21:33;;;;;;;33.73;16.67;;;7.00;73.10;;;;;;6063293;23;20624;-72
2023/03/13 04:24:02;;;;;;;34.17;16.83;;;7.00;73.10;;;;;;6062901;23;20180;-72
2023/03/13 04:26:31;;;;;;;38.17;17.23;;;7.00;73.20;;;;;;6066581;23;20176;-73
2023/03/13 04:28:59;;;;;;;31.67;16.50;;;6.90;73.20;;;;;;6064618;23;20178;-72
2023/03/13 04:31:27;;;;;;;34.97;17.53;;;6.90;73.10;;;;;;6064415;23;20175;-76
2023/03/13 04:33:56;;;;;;;37.83;17.07;;;6.90;73.00;;;;;;6054058;23;20176;-72
2023/03/13 04:36:24;;;;;;;36.00;16.70;;;6.90;73.10;;;;;;6053868;23;20198;-73
2023/03/13 04:38:52;;;;;;;29.63;15.87;;;6.90;73.20;;;;;;6064154;23;20503;-72
2023/03/13 04:41:22;;;;;;;41.97;17.13;;;6.80;73.20;;;;;;6062666;23;20206;-72
2023/03/13 04:43:50;;;;;;;34.00;18.67;;;6.80;73.20;;;;;;6062930;23;20235;-72
2023/03/13 04:46:19;;;;;;;38.23;17.37;;;6.80;73.40;;;;;;6062541;23;20179;-72
2023/03/13 04:48:47;;;;;;;37.70;16.97;;;6.80;73.50;;;;;;6063787;23;20175;-72
2023/03/13 04:51:15;;;;;;;30.67;16.57;;;6.80;73.60;;;;;;6064514;23;20182;-72
2023/03/13 04:53:44;;;;;;;36.20;16.73;;;6.80;73.60;;;;;;6063768;23;20291;-72
2023/03/13 04:56:21;;;;;;;37.53;17.20;;;6.80;73.70;;;;;;6064722;23;20545;-71
2023/03/13 04:59:10;;;;;;;36.80;15.57;;;6.70;73.60;;;;;;6062518;23;20183;-72
2023/03/13 05:01:39;;;;;;;40.47;17.30;;;6.70;73.70;;;;;;6064128;23;20618;-73
2023/03/13 05:04:08;;;;;;;47.40;17.40;;;6.80;73.80;;;;;;6062756;23;20170;-72
2023/03/13 05:06:36;;;;;;;37.27;17.20;;;6.80;73.90;;;;;;6065228;23;20306;-72
2023/03/13 05:09:05;;;;;;;29.93;15.63;;;6.80;73.90;;;;;;6065183;23;20655;-73
2023/03/13 05:11:34;;;;;;;37.53;17.70;;;6.80;74.10;;;;;;6064344;23;20234;-74
2023/03/13 05:14:03;;;;;;;31.67;17.30;;;6.80;74.20;;;;;;6063116;23;20546;-73
2023/03/13 05:16:33;;;;;;;34.07;17.77;;;6.80;74.20;;;;;;6065758;23;20181;-71
2023/03/13 05:19:01;;;;;;;34.83;17.07;;;6.80;74.40;;;;;;6064119;23;20164;-72
2023/03/13 05:21:29;;;;;;;46.40;18.20;;;6.90;74.70;;;;;;6065299;23;20203;-72
2023/03/13 05:23:58;;;;;;;37.40;20.53;;;6.90;74.80;;;;;;6063986;23;20180;-72
2023/03/13 05:26:26;;;;;;;40.23;19.33;;;6.90;74.80;;;;;;6065595;23;20172;-72
2023/03/13 05:28:54;;;;;;;41.63;19.53;;;6.90;75.10;;;;;;6065028;23;20498;-72
2023/03/13 05:31:23;;;;;;;37.87;20.43;;;6.90;75.10;;;;;;6063824;23;20175;-72
2023/03/13 05:33:53;;;;;;;37.67;18.57;;;6.90;75.00;;;;;;6063742;23;20171;-72
2023/03/13 05:36:21;;;;;;;34.70;18.30;;;7.00;75.10;;;;;;6058351;23;20629;-72
2023/03/13 05:38:49;;;;;;;43.47;20.93;;;7.00;75.40;;;;;;6063662;23;20174;-72
2023/03/13 05:41:18;;;;;;;38.63;20.70;;;7.00;75.80;;;;;;6063171;23;20198;-72
2023/03/13 05:43:46;;;;;;;42.13;21.07;;;7.00;75.90;;;;;;6064631;23;20174;-72
2023/03/13 05:46:14;;;;;;;43.13;20.63;;;7.00;76.30;;;;;;6062439;23;20175;-72
2023/03/13 05:48:44;;;;;;;44.27;20.47;;;7.10;76.40;;;;;;6063526;23;20299;-72
2023/03/13 05:51:14;;;;;;;37.93;19.57;;;7.10;76.50;;;;;;6063887;23;20176;-72
2023/03/13 05:53:42;;;;;;;40.67;20.17;;;7.10;76.90;;;;;;6063693;23;20181;-72
2023/03/13 05:56:11;;;;;;;36.63;19.97;;;7.10;77.00;;;;;;6061610;23;20266;-72
2023/03/13 05:58:39;;;;;;;38.10;20.50;;;7.20;77.00;;;;;;6063881;23;20207;-72
2023/03/13 06:01:08;;;;;;;35.57;21.03;;;7.20;77.00;;;;;;6063060;23;20236;-73
2023/03/13 06:03:37;;;;;;;47.10;22.03;;;7.20;77.10;;;;;;6064633;23;20240;-72
2023/03/13 06:06:06;;;;;;;39.37;20.57;;;7.30;77.40;;;;;;6062915;23;20180;-73
2023/03/13 06:08:36;;;;;;;38.53;21.97;;;7.30;77.50;;;;;;6064422;23;20222;-73
2023/03/13 06:11:04;;;;;;;38.87;21.00;;;7.40;77.70;;;;;;6064244;23;20172;-76
2023/03/13 06:13:32;;;;;;;44.10;23.17;;;7.40;77.60;;;;;;6064074;23;20633;-73
2023/03/13 06:16:01;;;;;;;41.13;22.93;;;7.40;77.80;;;;;;6057703;23;20237;-72
2023/03/13 06:18:29;;;;;;;38.47;20.50;;;7.40;77.80;;;;;;6063774;23;20235;-72
2023/03/13 06:20:59;;;;;;;40.17;20.63;;;7.50;77.80;;;;;;6062796;23;20741;-72
2023/03/13 06:23:28;;;;;;;42.10;21.07;;;7.50;77.50;;;;;;6065152;23;20564;-72
2023/03/13 06:25:58;;;;;;;36.43;17.37;;;7.60;77.40;;;;;;6063544;23;20175;-76
2023/03/13 06:28:26;;;;;;;40.50;19.83;;;7.70;77.60;;;;;;6065864;23;20177;-72
2023/03/13 06:30:55;;;;;;;35.80;18.30;;;7.80;77.70;;;;;;6064065;23;20236;-74
2023/03/13 06:33:23;;;;;;;30.87;14.93;;;7.80;77.70;;;;;;6049378;23;20180;-73
2023/03/13 06:35:51;;;;;;;30.67;17.17;;;7.90;77.70;;;;;;6053681;23;20537;-74
2023/03/13 06:38:24;;;;;;;33.53;17.67;;;7.90;77.80;;;;;;6063740;23;20162;-73
2023/03/13 06:40:52;;;;;;;34.90;16.53;;;8.00;77.80;;;;;;6062873;23;20574;-74
2023/03/13 06:43:22;;;;;;;28.70;18.07;;;8.10;77.80;;;;;;6061452;23;20229;-73
2023/03/13 06:45:51;;;;;;;31.43;17.97;;;8.10;77.80;;;;;;6062820;23;20188;-75
2023/03/13 06:48:21;;;;;;;34.33;16.23;;;8.20;77.70;;;;;;6066412;23;20181;-73
2023/03/13 06:50:50;;;;;;;37.27;17.70;;;8.20;77.70;;;;;;6064327;23;21236;-74
2023/03/13 06:53:20;;;;;;;29.47;16.30;;;8.30;77.90;;;;;;6062695;23;20229;-73
2023/03/13 06:55:48;;;;;;;26.07;15.17;;;8.40;78.00;;;;;;6065933;23;20178;-73
2023/03/13 06:58:17;;;;;;;28.03;15.93;;;8.40;77.80;;;;;;6066270;23;20201;-74
2023/03/13 07:01:05;;;;;;;28.93;15.73;;;8.40;77.70;;;;;;6064253;23;20253;-73
2023/03/13 07:03:34;;;;;;;26.83;14.03;;;8.50;77.70;;;;;;6062392;23;20237;-73
2023/03/13 07:06:03;;;;;;;23.03;13.13;;;8.60;77.60;;;;;;6065982;23;20174;-72
2023/03/13 07:08:32;;;;;;;25.53;13.50;;;8.60;77.80;;;;;;6065458;23;20174;-73
2023/03/13 07:11:02;;;;;;;22.40;12.03;;;8.60;77.70;;;;;;6065450;23;20175;-74
2023/03/13 07:13:31;;;;;;;25.47;10.90;;;8.70;77.60;;;;;;6063667;23;20182;-73
2023/03/13 07:16:03;;;;;;;21.37;10.40;;;8.70;77.40;;;;;;6065476;23;20189;-73
2023/03/13 07:18:32;;;;;;;22.27;11.23;;;8.80;77.60;;;;;;6064955;23;20169;-74
2023/03/13 07:21:03;;;;;;;20.37;11.83;;;8.80;77.90;;;;;;6066438;23;20273;-73
2023/03/13 07:23:34;;;;;;;24.13;11.93;;;8.80;77.70;;;;;;6067660;23;20520;-73
2023/03/13 07:26:04;;;;;;;22.23;11.17;;;8.90;77.60;;;;;;6066945;23;20162;-73
2023/03/13 07:28:33;;;;;;;26.00;11.17;;;8.90;77.70;;;;;;6068340;23;20158;-73
2023/03/13 07:31:07;;;;;;;23.73;11.07;;;9.00;77.50;;;;;;6066295;23;20528;-73
2023/03/13 07:33:36;;;;;;;21.20;11.40;;;9.10;77.50;;;;;;6067155;23;20163;-73
2023/03/13 07:36:05;;;;;;;22.30;11.03;;;9.10;76.90;;;;;;6068001;23;20178;-73
2023/03/13 07:38:34;;;;;;;21.70;10.23;;;9.10;76.40;;;;;;6068249;23;20175;-73
2023/03/13 07:41:03;;;;;;;19.00;10.27;;;9.20;76.70;;;;;;6066194;23;20202;-75
2023/03/13 07:43:31;;;;;;;23.40;11.40;;;9.20;76.20;;;;;;6067382;23;20222;-73
2023/03/13 07:46:01;;;;;;;15.90;9.13;;;9.20;75.80;;;;;;6066900;23;20182;-73
2023/03/13 07:48:32;;;;;;;16.83;9.77;;;9.20;76.20;;;;;;6066039;23;20185;-74
2023/03/13 07:51:02;;;;;;;16.50;10.27;;;9.30;75.20;;;;;;6064687;23;20175;-73
2023/03/13 07:53:30;;;;;;;18.93;11.23;;;9.30;75.20;;;;;;6064530;23;20186;-73
2023/03/13 07:56:00;;;;;;;16.03;9.97;;;9.30;75.00;;;;;;6066991;23;20179;-73
2023/03/13 07:58:31;;;;;;;16.73;9.57;;;9.40;75.00;;;;;;6064632;23;20229;-74
2023/03/13 08:00:59;;;;;;;18.00;9.33;;;9.40;74.90;;;;;;6055603;23;20178;-74
2023/03/13 08:03:30;;;;;;;16.53;9.37;;;9.50;74.90;;;;;;6059780;23;20179;-74
2023/03/13 08:05:59;;;;;;;19.23;9.60;;;9.50;74.60;;;;;;6063592;23;20241;-73
2023/03/13 08:08:28;;;;;;;18.97;8.87;;;9.50;74.00;;;;;;6064926;23;20222;-73
2023/03/13 08:11:01;;;;;;;18.37;8.13;;;9.60;74.30;;;;;;6063639;23;20182;-73
2023/03/13 08:13:30;;;;;;;17.87;9.17;;;9.60;73.90;;;;;;6059174;23;20540;-73
2023/03/13 08:16:06;;;;;;;18.20;10.10;;;9.70;73.60;;;;;;6060401;23;20175;-74
2023/03/13 08:18:38;;;;;;;18.33;8.40;;;9.70;73.60;;;;;;6063269;23;20158;-73
2023/03/13 08:21:08;;;;;;;16.17;8.93;;;9.80;73.80;;;;;;6062005;23;20171;-74
2023/03/13 08:23:37;;;;;;;11.83;7.43;;;9.90;73.40;;;;;;6063799;23;20163;-73
2023/03/13 08:26:07;;;;;;;14.73;7.93;;;10.00;72.90;;;;;;6062216;23;20212;-73
2023/03/13 08:28:36;;;;;;;16.20;8.43;;;10.10;72.10;;;;;;6059224;23;20250;-74
2023/03/13 08:31:09;;;;;;;21.17;8.70;;;10.10;71.00;;;;;;6060924;23;20174;-73
2023/03/13 08:33:39;;;;;;;17.43;8.43;;;10.10;71.20;;;;;;6062601;23;20601;-72
2023/03/13 08:36:17;;;;;;;16.90;7.80;;;10.20;70.50;;;;;;6060455;23;20249;-75
2023/03/13 08:38:46;;;;;;;18.93;9.20;;;10.30;70.70;;;;;;6064729;23;20162;-73
2023/03/13 08:41:16;;;;;;;13.13;8.33;;;10.40;70.70;;;;;;6065253;23;20171;-73
2023/03/13 08:43:45;;;;;;;14.40;7.63;;;10.50;71.60;;;;;;6065355;23;20183;-73
2023/03/13 08:46:14;;;;;;;16.23;8.50;;;10.60;70.20;;;;;;6061048;23;20632;-74
2023/03/13 08:48:50;;;;;;;17.97;7.77;;;10.70;69.70;;;;;;6061680;23;20246;-73
2023/03/13 08:51:19;;;;;;;13.10;7.17;;;10.80;69.00;;;;;;6063098;23;20162;-72
2023/03/13 08:53:51;;;;;;;14.00;7.10;;;10.90;68.40;;;;;;6062206;23;20179;-73
2023/03/13 08:56:21;;;;;;;12.40;7.30;;;10.90;68.10;;;;;;6063505;23;20214;-73
2023/03/13 08:58:51;;;;;;;17.87;8.53;;;11.10;67.60;;;;;;6034945;23;20661;-73
2023/03/13 09:01:20;;;;;;;16.53;7.43;;;11.10;67.80;;;;;;6034137;23;20489;-74
2023/03/13 09:03:50;;;;;;;13.60;7.03;;;11.20;67.70;;;;;;6034953;23;20235;-75
2023/03/13 09:06:18;;;;;;;13.73;8.03;;;11.30;66.60;;;;;;6035139;23;20175;-74
2023/03/13 09:08:47;;;;;;;13.30;8.10;;;11.40;66.80;;;;;;6033786;23;20175;-73
2023/03/13 09:11:18;;;;;;;12.40;7.43;;;11.50;66.20;;;;;;6036023;23;20175;-73
2023/03/13 09:13:48;;;;;;;11.30;7.27;;;11.50;66.60;;;;;;6034337;23;20231;-76
2023/03/13 09:16:18;;;;;;;15.20;7.80;;;11.60;66.80;;;;;;6036584;23;20164;-73
2023/03/13 09:18:47;;;;;;;15.47;8.10;;;11.70;66.90;;;;;;6031861;23;20609;-74
2023/03/13 09:21:19;;;;;;;12.80;7.07;;;11.80;67.00;;;;;;6033400;23;20199;-74
2023/03/13 09:23:48;;;;;;;13.90;7.90;;;11.90;65.00;;;;;;6032609;23;20203;-74
2023/03/13 09:26:17;;;;;;;10.20;5.03;;;12.00;64.10;;;;;;6030922;23;20179;-75
2023/03/13 09:28:49;;;;;;;12.83;6.03;;;12.00;63.20;;;;;;6032444;23;20160;-74
2023/03/13 09:31:20;;;;;;;11.13;6.33;;;12.10;61.90;;;;;;6034423;23;20179;-73
2023/03/13 09:33:50;;;;;;;12.53;6.40;;;12.20;62.00;;;;;;6036630;23;20198;-73
2023/03/13 09:36:20;;;;;;;12.53;6.60;;;12.20;62.70;;;;;;6032967;23;20179;-73
2023/03/13 09:38:50;;;;;;;14.17;5.63;;;12.40;63.30;;;;;;6036195;23;20159;-73
2023/03/13 09:41:25;;;;;;;11.33;6.17;;;12.40;61.40;;;;;;6034395;23;20182;-75
2023/03/13 09:44:02;;;;;;;11.33;6.47;;;12.50;61.40;;;;;;6035315;23;20186;-73
2023/03/13 09:46:38;;;;;;;10.03;6.30;;;12.50;61.60;;;;;;6033890;23;20179;-73
2023/03/13 09:49:13;;;;;;;8.77;5.00;;;12.60;61.90;;;;;;6034214;23;20242;-73
2023/03/13 09:51:53;;;;;;;9.73;5.53;;;12.70;59.70;;;;;;6035700;23;20163;-73
2023/03/13 09:54:25;;;;;;;11.77;7.17;;;12.80;60.80;;;;;;6033881;23;20219;-73
2023/03/13 09:56:57;;;;;;;8.10;4.33;;;12.90;60.80;;;;;;6039627;23;20234;-74
2023/03/13 09:59:32;;;;;;;8.97;4.50;;;12.90;58.50;;;;;;6062058;23;20163;-75
2023/03/13 10:02:03;;;;;;;6.07;3.40;;;12.90;58.30;;;;;;6062491;23;20710;-73
2023/03/13 10:04:38;;;;;;;7.43;3.60;;;13.00;57.60;;;;;;6062153;23;20207;-74
2023/03/13 10:07:13;;;;;;;9.63;4.77;;;13.10;57.10;;;;;;6061433;23;20532;-73
2023/03/13 10:09:43;;;;;;;9.97;5.23;;;13.20;57.70;;;;;;6063103;23;20171;-74
2023/03/13 10:12:19;;;;;;;7.73;4.43;;;13.20;57.60;;;;;;6061418;23;20253;-73
2023/03/13 10:15:12;;;;;;;7.67;4.10;;;13.30;57.40;;;;;;6063783;23;20170;-73
2023/03/13 10:17:40;;;;;;;6.20;3.53;;;13.30;57.10;;;;;;6063018;23;20167;-75
2023/03/13 10:20:21;;;;;;;6.53;3.50;;;13.40;55.20;;;;;;6063249;23;20211;-74
2023/03/13 10:22:54;;;;;;;7.63;4.57;;;13.50;55.60;;;;;;6061538;23;20193;-74
2023/03/13 10:25:30;;;;;;;8.47;3.43;;;13.50;55.50;;;;;;6062123;23;20167;-73
2023/03/13 10:27:58;;;;;;;5.90;3.30;;;13.60;54.50;;;;;;6060656;23;20170;-73
2023/03/13 10:30:30;;;;;;;5.40;3.37;;;13.60;54.20;;;;;;6061063;23;20174;-73
2023/03/13 10:33:01;;;;;;;8.27;3.17;;;13.70;53.70;;;;;;6063623;23;20234;-73
2023/03/13 10:35:34;;;;;;;4.87;3.30;;;13.80;53.00;;;;;;6064143;23;20212;-74
2023/03/13 10:38:06;;;;;;;5.90;3.83;;;13.80;52.00;;;;;;6063100;23;20174;-73
2023/03/13 10:40:35;;;;;;;10.40;3.47;;;13.90;52.30;;;;;;6062535;23;20163;-75
2023/03/13 10:43:05;;;;;;;7.00;2.90;;;14.00;52.20;;;;;;6061262;23;20202;-73
2023/03/13 10:45:37;;;;;;;7.33;2.80;;;14.00;51.10;;;;;;6062464;23;20158;-73
2023/03/13 10:48:13;;;;;;;4.10;2.67;;;14.00;50.10;;;;;;6063065;23;20166;-74
2023/03/13 10:50:44;;;;;;;6.83;3.37;;;14.00;50.30;;;;;;6063305;23;20476;-75
2023/03/13 10:53:31;;;;;;;7.63;3.40;;;14.00;50.80;;;;;;6063269;23;20174;-75
2023/03/13 10:56:09;;;;;;;5.07;3.43;;;14.10;51.00;;;;;;6061759;23;20170;-75
2023/03/13 10:58:42;;;;;;;7.53;3.67;;;14.10;51.00;;;;;;6059934;23;20193;-75
2023/03/13 11:01:17;;;;;;;5.90;3.37;;;14.30;51.90;;;;;;6062839;23;20166;-74
2023/03/13 11:03:47;;;;;;;8.43;3.93;;;14.30;52.00;;;;;;6062997;23;20199;-74
2023/03/13 11:06:27;;;;;;;4.90;3.00;;;14.30;50.80;;;;;;6062629;23;20715;-74
2023/03/13 11:09:03;;;;;;;8.83;3.47;;;14.40;50.10;;;;;;6061976;23;20158;-74
2023/03/13 11:11:43;;;;;;;7.17;3.57;;;14.50;51.10;;;;;;6061743;23;20217;-74
2023/03/13 11:14:15;;;;;;;5.10;3.50;;;14.60;50.40;;;;;;6061841;23;20170;-74
2023/03/13 11:16:49;;;;;;;4.87;3.23;;;14.60;50.50;;;;;;6063793;23;20502;-76
2023/03/13 11:19:47;;;;;;;9.63;3.97;;;14.70;49.80;;;;;;6061819;23;20548;-74
2023/03/13 11:22:29;;;;;;;9.30;3.73;;;14.80;50.40;;;;;;6044842;23;20178;-74
2023/03/13 11:25:04;;;;;;;7.83;3.50;;;14.80;49.40;;;;;;6064360;23;20670;-74
2023/03/13 11:27:38;;;;;;;10.17;3.33;;;14.90;50.30;;;;;;6063948;23;20166;-74
2023/03/13 11:30:21;;;;;;;6.30;3.70;;;15.00;50.70;;;;;;6063217;23;20162;-74
2023/03/13 11:32:54;;;;;;;5.20;2.90;;;15.00;49.00;;;;;;6063235;23;20163;-76
2023/03/13 11:35:37;;;;;;;4.60;3.00;;;15.10;49.50;;;;;;6062616;23;20186;-76
2023/03/13 11:38:09;;;;;;;4.53;2.87;;;15.20;48.40;;;;;;6063905;23;20163;-73
2023/03/13 11:40:46;;;;;;;5.80;3.03;;;15.20;48.60;;;;;;6063503;23;20162;-74
2023/03/13 11:43:26;;;;;;;4.57;2.80;;;15.30;48.40;;;;;;6060755;23;20714;-74
2023/03/13 11:46:14;;;;;;;7.30;3.43;;;15.40;48.90;;;;;;6060311;23;20170;-74
2023/03/13 11:49:15;;;;;;;6.07;2.57;;;15.40;48.00;;;;;;6064972;23;20162;-75
2023/03/13 11:51:58;;;;;;;5.57;3.10;;;15.50;48.50;;;;;;6044201;23;20242;-74
2023/03/13 11:54:58;;;;;;;4.87;2.87;;;15.50;47.40;;;;;;6062608;23;20195;-75
2023/03/13 11:57:31;;;;;;;5.70;3.07;;;15.60;47.90;;;;;;6065649;23;20206;-75
2023/03/13 12:00:24;;;;;;;4.77;2.63;;;15.60;48.10;;;;;;6064234;23;20167;-76
2023/03/13 12:02:58;;;;;;;4.90;3.03;;;15.70;48.50;;;;;;6064873;23;20174;-75
2023/03/13 12:05:29;;;;;;;7.73;2.90;;;15.80;47.80;;;;;;6064399;23;20203;-73
2023/03/13 12:08:04;;;;;;;7.20;2.70;;;15.80;47.70;;;;;;6065044;23;20162;-75
2023/03/13 12:10:38;;;;;;;4.57;2.83;;;15.90;47.40;;;;;;6066874;23;21047;-75
2023/03/13 12:13:17;;;;;;;5.10;2.40;;;15.90;46.30;;;;;;6067113;23;20158;-75
2023/03/13 12:15:49;;;;;;;4.27;2.60;;;16.00;46.80;;;;;;6063428;23;20162;-74
2023/03/13 12:18:23;;;;;;;4.80;3.10;;;16.10;47.30;;;;;;6066547;23;20171;-75
2023/03/13 12:20:56;;;;;;;4.47;2.70;;;16.10;47.60;;;;;;6069042;23;20496;-74
2023/03/13 12:23:31;;;;;;;4.03;2.20;;;16.30;47.40;;;;;;6066967;23;20649;-75
2023/03/13 12:26:06;;;;;;;4.17;2.47;;;16.30;46.90;;;;;;6064183;23;20240;-75
2023/03/13 12:28:42;;;;;;;12.60;3.23;;;16.40;47.20;;;;;;6065006;23;20166;-74
2023/03/13 12:31:22;;;;;;;8.10;3.20;;;16.50;47.20;;;;;;6063065;23;20616;-74
2023/03/13 12:33:57;;;;;;;5.47;3.00;;;16.50;46.00;;;;;;6065476;23;20225;-75
2023/03/13 12:36:29;;;;;;;12.20;3.20;;;16.60;45.70;;;;;;6066064;23;20213;-74
2023/03/13 12:39:10;;;;;;;5.50;2.20;;;16.60;44.40;;;;;;6068013;23;20190;-75
2023/03/13 12:41:42;;;;;;;4.37;2.50;;;16.70;44.30;;;;;;6065083;23;20163;-75
2023/03/13 12:44:17;;;;;;;3.03;2.13;;;16.80;45.10;;;;;;6063359;23;20911;-74
2023/03/13 12:46:47;;;;;;;7.07;2.60;;;16.80;43.90;;;;;;6064475;23;20170;-74
2023/03/13 12:49:41;;;;;;;22.63;4.03;;;17.00;44.70;;;;;;6064138;23;20171;-74
2023/03/13 12:52:47;;;;;;;6.00;2.57;;;17.10;44.40;;;;;;6064054;23;20170;-74
2023/03/13 12:55:51;;;;;;;9.03;2.37;;;17.20;44.20;;;;;;6060322;23;20632;-74
2023/03/13 12:58:39;;;;;;;4.80;2.67;;;17.30;43.00;;;;;;6062447;23;20198;-74
2023/03/13 13:01:17;;;;;;;5.50;2.30;;;17.40;43.10;;;;;;6063905;23;20234;-75
2023/03/13 13:03:52;;;;;;;4.67;2.40;;;17.60;43.10;;;;;;6064178;23;20554;-74